sensor_id;sensor_type;location;lat;lon;timestamp;temperature;humidity
25302;DHT22;13243;50.888;4.724;2022-12-18T00:00:20;-4.80;99.90
25302;DHT22;13243;50.888;4.724;2022-12-18T00:05:22;-4.90;99.90
25302;DHT22;13243;50.888;4.724;2022-12-18T00:10:24;-4.60;99.90
25302;DHT22;13243;50.888;4.724;2022-12-18T00:15:25;-4.80;99.90
25302;DHT22;13243;50.888;4.724;2022-12-18T00:20:27;-5.00;99.90
25302;DHT22;13243;50.888;4.724;2022-12-18T00:25:29;-5.10;99.90
25302;DHT22;13243;50.888;4.724;2022-12-18T00:30:31;-5.20;99.90
25302;DHT22;13243;50.888;4.724;2022-12-18T00:35:32;-5.30;99.90
25302;DHT22;13243;50.888;4.724;2022-12-18T00:40:34;-5.40;99.90
25302;DHT22;13243;50.888;4.724;2022-12-18T00:45:36;-5.20;99.90
25302;DHT22;13243;50.888;4.724;2022-12-18T00:50:38;-5.20;99.90
25302;DHT22;13243;50.888;4.724;2022-12-18T00:55:41;-5.20;99.90
25302;DHT22;13243;50.888;4.724;2022-12-18T01:00:43;-5.30;99.90
25302;DHT22;13243;50.888;4.724;2022-12-18T01:05:45;-5.30;99.90
25302;DHT22;13243;50.888;4.724;2022-12-18T01:10:47;-5.40;99.90
25302;DHT22;13243;50.888;4.724;2022-12-18T01:15:50;-5.30;99.90
25302;DHT22;13243;50.888;4.724;2022-12-18T01:20:52;-5.40;99.90
25302;DHT22;13243;50.888;4.724;2022-12-18T01:25:53;-5.30;99.90
25302;DHT22;13243;50.888;4.724;2022-12-18T01:30:55;-5.30;99.90
25302;DHT22;13243;50.888;4.724;2022-12-18T01:35:57;-5.30;99.90
25302;DHT22;13243;50.888;4.724;2022-12-18T01:41:00;-5.30;99.90
25302;DHT22;13243;50.888;4.724;2022-12-18T01:46:02;-5.20;99.90
25302;DHT22;13243;50.888;4.724;2022-12-18T01:51:05;-5.30;99.90
25302;DHT22;13243;50.888;4.724;2022-12-18T01:56:08;-5.40;99.90
25302;DHT22;13243;50.888;4.724;2022-12-18T02:01:13;-5.50;99.90
25302;DHT22;13243;50.888;4.724;2022-12-18T02:06:29;-5.40;99.90
25302;DHT22;13243;50.888;4.724;2022-12-18T02:12:00;-5.40;99.90
25302;DHT22;13243;50.888;4.724;2022-12-18T02:17:19;-5.40;99.90
25302;DHT22;13243;50.888;4.724;2022-12-18T02:27:53;-5.30;99.90
25302;DHT22;13243;50.888;4.724;2022-12-18T02:32:57;-5.50;99.90
25302;DHT22;13243;50.888;4.724;2022-12-18T02:38:02;-5.40;99.90
25302;DHT22;13243;50.888;4.724;2022-12-18T02:43:13;-5.70;99.90
25302;DHT22;13243;50.888;4.724;2022-12-18T02:48:33;-5.70;99.90
25302;DHT22;13243;50.888;4.724;2022-12-18T02:53:37;-5.70;99.90
25302;DHT22;13243;50.888;4.724;2022-12-18T03:04:20;-5.70;99.90
25302;DHT22;13243;50.888;4.724;2022-12-18T03:09:36;-5.70;99.90
25302;DHT22;13243;50.888;4.724;2022-12-18T03:14:45;-5.70;99.90
25302;DHT22;13243;50.888;4.724;2022-12-18T03:19:53;-5.70;99.90
25302;DHT22;13243;50.888;4.724;2022-12-18T03:24:59;-5.70;99.90
25302;DHT22;13243;50.888;4.724;2022-12-18T03:30:08;-5.70;99.90
25302;DHT22;13243;50.888;4.724;2022-12-18T03:35:13;-5.70;99.90
25302;DHT22;13243;50.888;4.724;2022-12-18T03:40:21;-5.80;99.90
25302;DHT22;13243;50.888;4.724;2022-12-18T03:45:36;-5.80;99.90
25302;DHT22;13243;50.888;4.724;2022-12-18T03:55:44;-5.90;99.90
25302;DHT22;13243;50.888;4.724;2022-12-18T04:00:48;-6.00;99.90
25302;DHT22;13243;50.888;4.724;2022-12-18T04:05:53;-5.90;99.90
25302;DHT22;13243;50.888;4.724;2022-12-18T04:10:56;-6.00;99.90
25302;DHT22;13243;50.888;4.724;2022-12-18T04:15:57;-6.10;99.90
25302;DHT22;13243;50.888;4.724;2022-12-18T04:20:59;-6.10;99.90
25302;DHT22;13243;50.888;4.724;2022-12-18T04:26:01;-6.10;99.90
25302;DHT22;13243;50.888;4.724;2022-12-18T04:31:03;-6.10;99.90
25302;DHT22;13243;50.888;4.724;2022-12-18T04:36:05;-6.20;99.90
25302;DHT22;13243;50.888;4.724;2022-12-18T04:41:07;-6.30;99.90
25302;DHT22;13243;50.888;4.724;2022-12-18T04:46:09;-6.30;99.90
25302;DHT22;13243;50.888;4.724;2022-12-18T04:51:11;-6.10;99.90
25302;DHT22;13243;50.888;4.724;2022-12-18T04:56:14;-6.10;99.90
25302;DHT22;13243;50.888;4.724;2022-12-18T05:01:18;-6.10;99.90
25302;DHT22;13243;50.888;4.724;2022-12-18T05:06:20;-6.20;99.90
25302;DHT22;13243;50.888;4.724;2022-12-18T05:11:21;-6.20;99.90
25302;DHT22;13243;50.888;4.724;2022-12-18T05:16:23;-5.90;99.90
25302;DHT22;13243;50.888;4.724;2022-12-18T05:21:25;-6.00;99.90
25302;DHT22;13243;50.888;4.724;2022-12-18T05:26:27;-6.00;99.90
25302;DHT22;13243;50.888;4.724;2022-12-18T05:31:29;-5.90;99.90
25302;DHT22;13243;50.888;4.724;2022-12-18T05:36:38;-6.00;99.90
25302;DHT22;13243;50.888;4.724;2022-12-18T05:41:39;-6.10;99.90
25302;DHT22;13243;50.888;4.724;2022-12-18T05:46:42;-6.10;99.90
25302;DHT22;13243;50.888;4.724;2022-12-18T05:51:43;-6.10;99.90
25302;DHT22;13243;50.888;4.724;2022-12-18T05:56:45;-6.20;99.90
25302;DHT22;13243;50.888;4.724;2022-12-18T06:01:49;-6.10;99.90
25302;DHT22;13243;50.888;4.724;2022-12-18T06:06:51;-6.30;99.90
25302;DHT22;13243;50.888;4.724;2022-12-18T06:11:53;-6.30;99.90
25302;DHT22;13243;50.888;4.724;2022-12-18T06:16:55;-6.30;99.90
25302;DHT22;13243;50.888;4.724;2022-12-18T06:21:57;-6.40;99.90
25302;DHT22;13243;50.888;4.724;2022-12-18T06:27:00;-6.30;99.90
25302;DHT22;13243;50.888;4.724;2022-12-18T06:32:02;-6.40;99.90
25302;DHT22;13243;50.888;4.724;2022-12-18T06:37:04;-6.40;99.90
25302;DHT22;13243;50.888;4.724;2022-12-18T06:42:06;-6.40;99.90
25302;DHT22;13243;50.888;4.724;2022-12-18T06:47:07;-6.40;99.90
25302;DHT22;13243;50.888;4.724;2022-12-18T06:52:09;-6.30;99.90
25302;DHT22;13243;50.888;4.724;2022-12-18T06:57:11;-6.10;99.90
25302;DHT22;13243;50.888;4.724;2022-12-18T07:02:13;-5.90;99.90
25302;DHT22;13243;50.888;4.724;2022-12-18T07:07:16;-6.10;99.90
25302;DHT22;13243;50.888;4.724;2022-12-18T07:12:18;-6.10;99.90
25302;DHT22;13243;50.888;4.724;2022-12-18T07:17:20;-6.10;99.90
25302;DHT22;13243;50.888;4.724;2022-12-18T07:22:21;-6.00;99.90
25302;DHT22;13243;50.888;4.724;2022-12-18T07:27:23;-5.80;99.90
25302;DHT22;13243;50.888;4.724;2022-12-18T07:32:25;-5.90;99.90
25302;DHT22;13243;50.888;4.724;2022-12-18T07:37:27;-5.70;99.90
25302;DHT22;13243;50.888;4.724;2022-12-18T07:42:29;-5.80;99.90
25302;DHT22;13243;50.888;4.724;2022-12-18T07:47:35;-5.70;99.90
25302;DHT22;13243;50.888;4.724;2022-12-18T07:52:37;-5.90;99.90
25302;DHT22;13243;50.888;4.724;2022-12-18T07:57:39;-5.70;99.90
25302;DHT22;13243;50.888;4.724;2022-12-18T08:03:01;-5.40;99.90
25302;DHT22;13243;50.888;4.724;2022-12-18T08:08:03;-5.30;99.90
25302;DHT22;13243;50.888;4.724;2022-12-18T08:13:05;-5.40;99.90
25302;DHT22;13243;50.888;4.724;2022-12-18T08:18:07;-5.40;99.90
25302;DHT22;13243;50.888;4.724;2022-12-18T08:23:14;-5.30;99.90
25302;DHT22;13243;50.888;4.724;2022-12-18T08:28:16;-5.20;99.90
25302;DHT22;13243;50.888;4.724;2022-12-18T08:33:18;-5.20;99.90
25302;DHT22;13243;50.888;4.724;2022-12-18T08:38:20;-4.90;99.90
25302;DHT22;13243;50.888;4.724;2022-12-18T08:43:22;-4.80;99.90
25302;DHT22;13243;50.888;4.724;2022-12-18T08:48:43;-4.70;99.90
25302;DHT22;13243;50.888;4.724;2022-12-18T08:53:45;-4.50;99.90
25302;DHT22;13243;50.888;4.724;2022-12-18T08:58:47;-4.20;99.90
25302;DHT22;13243;50.888;4.724;2022-12-18T09:03:52;-3.90;99.90
25302;DHT22;13243;50.888;4.724;2022-12-18T09:08:54;-3.80;99.90
25302;DHT22;13243;50.888;4.724;2022-12-18T09:13:56;-3.60;99.90
25302;DHT22;13243;50.888;4.724;2022-12-18T09:18:59;-3.50;99.90
25302;DHT22;13243;50.888;4.724;2022-12-18T09:24:01;-3.30;99.90
25302;DHT22;13243;50.888;4.724;2022-12-18T09:29:04;-3.20;99.90
25302;DHT22;13243;50.888;4.724;2022-12-18T09:34:06;-3.10;99.90
25302;DHT22;13243;50.888;4.724;2022-12-18T09:39:08;-3.00;99.90
25302;DHT22;13243;50.888;4.724;2022-12-18T09:44:39;-2.90;99.90
25302;DHT22;13243;50.888;4.724;2022-12-18T09:49:49;-2.90;99.90
25302;DHT22;13243;50.888;4.724;2022-12-18T09:55:02;-3.00;99.90
25302;DHT22;13243;50.888;4.724;2022-12-18T10:00:15;-2.90;99.90
25302;DHT22;13243;50.888;4.724;2022-12-18T10:11:28;-2.70;99.90
25302;DHT22;13243;50.888;4.724;2022-12-18T10:16:38;-2.50;99.90
25302;DHT22;13243;50.888;4.724;2022-12-18T10:27:09;-2.40;99.90
25302;DHT22;13243;50.888;4.724;2022-12-18T10:32:27;-2.40;99.90
25302;DHT22;13243;50.888;4.724;2022-12-18T10:37:29;-2.30;99.90
25302;DHT22;13243;50.888;4.724;2022-12-18T10:42:31;-2.20;99.90
25302;DHT22;13243;50.888;4.724;2022-12-18T10:47:33;-2.20;99.90
25302;DHT22;13243;50.888;4.724;2022-12-18T10:52:36;-2.20;99.90
25302;DHT22;13243;50.888;4.724;2022-12-18T10:57:45;-2.00;99.90
25302;DHT22;13243;50.888;4.724;2022-12-18T11:02:47;-1.90;99.90
25302;DHT22;13243;50.888;4.724;2022-12-18T11:07:50;-1.80;99.90
25302;DHT22;13243;50.888;4.724;2022-12-18T11:12:53;-1.80;99.90
25302;DHT22;13243;50.888;4.724;2022-12-18T11:17:55;-1.70;99.90
25302;DHT22;13243;50.888;4.724;2022-12-18T11:23:02;-1.60;99.90
25302;DHT22;13243;50.888;4.724;2022-12-18T11:28:35;-1.60;99.90
25302;DHT22;13243;50.888;4.724;2022-12-18T11:33:41;-1.50;99.90
25302;DHT22;13243;50.888;4.724;2022-12-18T11:39:14;-1.50;99.90
25302;DHT22;13243;50.888;4.724;2022-12-18T11:44:25;-1.40;99.90
25302;DHT22;13243;50.888;4.724;2022-12-18T11:49:35;-1.40;99.90
25302;DHT22;13243;50.888;4.724;2022-12-18T11:54:37;-1.40;99.90
25302;DHT22;13243;50.888;4.724;2022-12-18T12:00:11;-1.30;99.90
25302;DHT22;13243;50.888;4.724;2022-12-18T12:26:14;-1.00;99.90
25302;DHT22;13243;50.888;4.724;2022-12-18T12:41:50;-0.80;99.90
25302;DHT22;13243;50.888;4.724;2022-12-18T12:47:28;-0.90;99.90
25302;DHT22;13243;50.888;4.724;2022-12-18T12:57:39;-0.60;99.90
25302;DHT22;13243;50.888;4.724;2022-12-18T13:03:12;-0.50;99.90
25302;DHT22;13243;50.888;4.724;2022-12-18T13:08:24;-0.40;99.90
25302;DHT22;13243;50.888;4.724;2022-12-18T13:13:48;-0.30;99.90
25302;DHT22;13243;50.888;4.724;2022-12-18T13:18:53;-0.30;99.90
25302;DHT22;13243;50.888;4.724;2022-12-18T13:23:56;-0.30;99.90
25302;DHT22;13243;50.888;4.724;2022-12-18T13:34:43;-0.10;99.90
25302;DHT22;13243;50.888;4.724;2022-12-18T13:39:45;-0.10;99.90
25302;DHT22;13243;50.888;4.724;2022-12-18T13:44:48;-0.10;99.90
25302;DHT22;13243;50.888;4.724;2022-12-18T13:49:49;-0.10;99.90
25302;DHT22;13243;50.888;4.724;2022-12-18T13:54:59;0.00;99.90
25302;DHT22;13243;50.888;4.724;2022-12-18T14:05:36;-0.10;99.90
25302;DHT22;13243;50.888;4.724;2022-12-18T14:10:45;-0.10;99.90
25302;DHT22;13243;50.888;4.724;2022-12-18T14:15:51;0.00;99.90
25302;DHT22;13243;50.888;4.724;2022-12-18T14:20:56;0.00;99.90
25302;DHT22;13243;50.888;4.724;2022-12-18T14:25:59;0.00;99.90
25302;DHT22;13243;50.888;4.724;2022-12-18T14:31:20;0.00;99.90
25302;DHT22;13243;50.888;4.724;2022-12-18T14:36:27;0.00;99.90
25302;DHT22;13243;50.888;4.724;2022-12-18T14:41:29;0.00;99.90
25302;DHT22;13243;50.888;4.724;2022-12-18T14:46:35;-0.10;99.90
25302;DHT22;13243;50.888;4.724;2022-12-18T14:51:38;0.00;99.90
25302;DHT22;13243;50.888;4.724;2022-12-18T14:56:51;-0.10;99.90
25302;DHT22;13243;50.888;4.724;2022-12-18T15:02:20;0.00;99.90
25302;DHT22;13243;50.888;4.724;2022-12-18T15:07:23;0.00;99.90
25302;DHT22;13243;50.888;4.724;2022-12-18T15:12:37;0.00;99.90
25302;DHT22;13243;50.888;4.724;2022-12-18T15:17:39;-0.10;99.90
25302;DHT22;13243;50.888;4.724;2022-12-18T15:22:41;-0.10;99.90
25302;DHT22;13243;50.888;4.724;2022-12-18T15:27:46;0.00;99.90
25302;DHT22;13243;50.888;4.724;2022-12-18T15:32:50;-0.10;99.90
25302;DHT22;13243;50.888;4.724;2022-12-18T15:37:52;-0.10;99.90
25302;DHT22;13243;50.888;4.724;2022-12-18T15:42:55;0.10;99.90
25302;DHT22;13243;50.888;4.724;2022-12-18T15:48:21;0.00;99.90
25302;DHT22;13243;50.888;4.724;2022-12-18T15:53:25;0.00;99.90
25302;DHT22;13243;50.888;4.724;2022-12-18T15:58:28;0.00;99.90
25302;DHT22;13243;50.888;4.724;2022-12-18T16:03:29;0.00;99.90
25302;DHT22;13243;50.888;4.724;2022-12-18T16:08:31;0.10;99.90
25302;DHT22;13243;50.888;4.724;2022-12-18T16:13:33;0.20;99.90
25302;DHT22;13243;50.888;4.724;2022-12-18T16:18:35;0.10;99.90
25302;DHT22;13243;50.888;4.724;2022-12-18T16:23:37;0.20;99.90
25302;DHT22;13243;50.888;4.724;2022-12-18T16:28:39;0.20;99.90
25302;DHT22;13243;50.888;4.724;2022-12-18T16:33:48;0.20;99.90
25302;DHT22;13243;50.888;4.724;2022-12-18T16:38:53;0.20;99.90
25302;DHT22;13243;50.888;4.724;2022-12-18T16:43:59;0.20;99.90
25302;DHT22;13243;50.888;4.724;2022-12-18T16:49:01;0.20;99.90
25302;DHT22;13243;50.888;4.724;2022-12-18T16:54:03;0.20;99.90
25302;DHT22;13243;50.888;4.724;2022-12-18T16:59:11;0.20;99.90
25302;DHT22;13243;50.888;4.724;2022-12-18T17:04:14;0.20;99.90
25302;DHT22;13243;50.888;4.724;2022-12-18T17:09:18;0.30;99.90
25302;DHT22;13243;50.888;4.724;2022-12-18T17:14:30;0.30;99.90
25302;DHT22;13243;50.888;4.724;2022-12-18T17:19:32;0.30;99.90
25302;DHT22;13243;50.888;4.724;2022-12-18T17:24:34;0.40;99.90
25302;DHT22;13243;50.888;4.724;2022-12-18T17:29:36;0.40;99.90
25302;DHT22;13243;50.888;4.724;2022-12-18T17:34:47;0.40;99.90
25302;DHT22;13243;50.888;4.724;2022-12-18T17:39:49;0.40;99.90
25302;DHT22;13243;50.888;4.724;2022-12-18T17:44:51;0.40;99.90
25302;DHT22;13243;50.888;4.724;2022-12-18T17:49:53;0.40;99.90
25302;DHT22;13243;50.888;4.724;2022-12-18T17:54:56;0.40;99.90
25302;DHT22;13243;50.888;4.724;2022-12-18T17:59:57;0.50;99.90
25302;DHT22;13243;50.888;4.724;2022-12-18T18:04:59;0.50;99.90
25302;DHT22;13243;50.888;4.724;2022-12-18T18:10:01;0.50;99.90
25302;DHT22;13243;50.888;4.724;2022-12-18T18:15:03;0.50;99.90
25302;DHT22;13243;50.888;4.724;2022-12-18T18:20:06;0.40;99.90
25302;DHT22;13243;50.888;4.724;2022-12-18T18:25:08;0.40;99.90
25302;DHT22;13243;50.888;4.724;2022-12-18T18:30:11;0.40;99.90
25302;DHT22;13243;50.888;4.724;2022-12-18T18:35:13;0.40;99.90
25302;DHT22;13243;50.888;4.724;2022-12-18T18:40:35;0.40;99.90
25302;DHT22;13243;50.888;4.724;2022-12-18T18:45:36;0.40;99.90
25302;DHT22;13243;50.888;4.724;2022-12-18T18:50:39;0.40;99.90
25302;DHT22;13243;50.888;4.724;2022-12-18T18:55:44;0.40;99.90
25302;DHT22;13243;50.888;4.724;2022-12-18T19:01:06;0.40;99.90
25302;DHT22;13243;50.888;4.724;2022-12-18T19:06:11;0.40;99.90
25302;DHT22;13243;50.888;4.724;2022-12-18T19:11:15;0.40;99.90
25302;DHT22;13243;50.888;4.724;2022-12-18T19:16:37;0.50;99.90
25302;DHT22;13243;50.888;4.724;2022-12-18T19:21:40;0.50;99.90
25302;DHT22;13243;50.888;4.724;2022-12-18T19:26:42;0.50;99.90
25302;DHT22;13243;50.888;4.724;2022-12-18T19:31:44;0.50;99.90
25302;DHT22;13243;50.888;4.724;2022-12-18T19:36:46;0.60;99.90
25302;DHT22;13243;50.888;4.724;2022-12-18T19:41:48;0.50;99.90
25302;DHT22;13243;50.888;4.724;2022-12-18T19:46:50;0.60;99.90
25302;DHT22;13243;50.888;4.724;2022-12-18T19:51:52;0.60;99.90
25302;DHT22;13243;50.888;4.724;2022-12-18T19:56:54;0.60;99.90
25302;DHT22;13243;50.888;4.724;2022-12-18T20:01:56;0.60;99.90
25302;DHT22;13243;50.888;4.724;2022-12-18T20:06:58;0.70;99.90
25302;DHT22;13243;50.888;4.724;2022-12-18T20:12:00;0.70;99.90
25302;DHT22;13243;50.888;4.724;2022-12-18T20:17:02;0.70;99.90
25302;DHT22;13243;50.888;4.724;2022-12-18T20:22:04;0.80;99.90
25302;DHT22;13243;50.888;4.724;2022-12-18T20:27:06;0.80;99.90
25302;DHT22;13243;50.888;4.724;2022-12-18T20:32:15;0.80;99.90
25302;DHT22;13243;50.888;4.724;2022-12-18T20:37:17;0.90;99.90
25302;DHT22;13243;50.888;4.724;2022-12-18T20:42:19;0.90;99.90
25302;DHT22;13243;50.888;4.724;2022-12-18T20:47:21;0.90;99.90
25302;DHT22;13243;50.888;4.724;2022-12-18T20:52:23;0.90;99.90
25302;DHT22;13243;50.888;4.724;2022-12-18T20:57:25;0.90;99.90
25302;DHT22;13243;50.888;4.724;2022-12-18T21:02:27;0.90;99.90
25302;DHT22;13243;50.888;4.724;2022-12-18T21:07:29;1.00;99.90
25302;DHT22;13243;50.888;4.724;2022-12-18T21:12:31;1.00;99.90
25302;DHT22;13243;50.888;4.724;2022-12-18T21:17:51;1.10;99.90
25302;DHT22;13243;50.888;4.724;2022-12-18T21:22:53;1.10;99.90
25302;DHT22;13243;50.888;4.724;2022-12-18T21:27:58;1.20;99.90
25302;DHT22;13243;50.888;4.724;2022-12-18T21:33:00;1.20;99.90
25302;DHT22;13243;50.888;4.724;2022-12-18T21:38:02;1.20;99.90
25302;DHT22;13243;50.888;4.724;2022-12-18T21:43:08;1.30;99.90
25302;DHT22;13243;50.888;4.724;2022-12-18T21:48:29;1.30;99.90
25302;DHT22;13243;50.888;4.724;2022-12-18T21:53:30;1.30;99.90
25302;DHT22;13243;50.888;4.724;2022-12-18T21:58:32;1.40;99.90
25302;DHT22;13243;50.888;4.724;2022-12-18T22:03:34;1.40;99.90
25302;DHT22;13243;50.888;4.724;2022-12-18T22:08:36;1.40;99.90
25302;DHT22;13243;50.888;4.724;2022-12-18T22:13:44;1.40;99.90
25302;DHT22;13243;50.888;4.724;2022-12-18T22:18:46;1.50;99.90
25302;DHT22;13243;50.888;4.724;2022-12-18T22:23:53;1.40;99.90
25302;DHT22;13243;50.888;4.724;2022-12-18T22:28:55;1.50;99.90
25302;DHT22;13243;50.888;4.724;2022-12-18T22:34:17;1.60;99.90
25302;DHT22;13243;50.888;4.724;2022-12-18T22:39:25;1.60;99.90
25302;DHT22;13243;50.888;4.724;2022-12-18T22:44:29;1.70;99.90
25302;DHT22;13243;50.888;4.724;2022-12-18T22:49:30;1.70;99.90
25302;DHT22;13243;50.888;4.724;2022-12-18T22:54:34;1.70;99.90
25302;DHT22;13243;50.888;4.724;2022-12-18T22:59:36;1.70;99.90
25302;DHT22;13243;50.888;4.724;2022-12-18T23:04:38;1.80;99.90
25302;DHT22;13243;50.888;4.724;2022-12-18T23:09:40;1.80;99.90
25302;DHT22;13243;50.888;4.724;2022-12-18T23:14:42;2.00;99.90
25302;DHT22;13243;50.888;4.724;2022-12-18T23:19:43;2.00;99.90
25302;DHT22;13243;50.888;4.724;2022-12-18T23:24:49;2.00;99.90
25302;DHT22;13243;50.888;4.724;2022-12-18T23:29:51;2.20;99.90
25302;DHT22;13243;50.888;4.724;2022-12-18T23:34:55;2.10;99.90
25302;DHT22;13243;50.888;4.724;2022-12-18T23:39:57;2.20;99.90
25302;DHT22;13243;50.888;4.724;2022-12-18T23:44:59;2.20;99.90
25302;DHT22;13243;50.888;4.724;2022-12-18T23:50:05;2.30;99.90
25302;DHT22;13243;50.888;4.724;2022-12-18T23:55:08;2.40;99.90
